Time;durP1;ratioP1;P1;durP2;ratioP2;P2;SDS_P1;SDS_P2;PMS_P1;PMS_P2;Temp;Humidity;BMP_temperature;BMP_pressure;BME280_temperature;BME280_humidity;BME280_pressure;Samples;Min_cycle;Max_cycle;Signal;HPM_P1;HPM_P2
2021/11/03 00:01:09;;;;;;;;;;;;;;;15.67;52.33;99441.44;4146671;28;19921;-66
2021/11/03 00:03:11;;;;;;;;;;;;;;;15.65;52.24;99438.91;4146219;28;19928;-65
2021/11/03 00:05:14;;;;;;;;;;;;;;;15.64;52.36;99436.41;4146426;28;19929;-63
2021/11/03 00:07:17;;;;;;;;;;;;;;;15.62;51.99;99433.00;4145000;28;20325;-64
2021/11/03 00:09:19;;;;;;;;;;;;;;;15.59;52.22;99431.44;4135519;28;19921;-64
2021/11/03 00:11:25;;;;;;;;;;;;;;;15.57;52.07;99430.72;4146413;28;19990;-65
2021/11/03 00:13:27;;;;;;;;;;;;;;;15.56;52.40;99418.41;4144819;28;19959;-65
2021/11/03 00:15:29;;;;;;;;;;;;;;;15.55;52.35;99421.19;4143639;28;19929;-65
2021/11/03 00:17:31;;;;;;;;;;;;;;;15.54;52.40;99419.50;4146231;28;20535;-65
2021/11/03 00:19:34;;;;;;;;;;;;;;;15.52;52.18;99418.75;4146448;28;19925;-65
2021/11/03 00:21:36;;;;;;;;;;;;;;;15.51;52.41;99417.94;4146371;28;19921;-65
2021/11/03 00:23:39;;;;;;;;;;;;;;;15.49;52.18;99417.19;4145110;28;19921;-65
2021/11/03 00:25:45;;;;;;;;;;;;;;;15.48;52.17;99419.03;4146447;28;20384;-66
2021/11/03 00:27:47;;;;;;;;;;;;;;;15.46;52.57;99409.50;4145896;28;19921;-65
2021/11/03 00:29:49;;;;;;;;;;;;;;;15.45;52.62;99408.66;4146184;28;19925;-65
2021/11/03 00:31:51;;;;;;;;;;;;;;;15.44;52.60;99414.06;4146189;28;20289;-65
2021/11/03 00:33:53;;;;;;;;;;;;;;;15.43;52.57;99402.66;4145806;28;19957;-64
2021/11/03 00:35:55;;;;;;;;;;;;;;;15.42;52.54;99400.09;4146012;28;20013;-64
2021/11/03 00:37:57;;;;;;;;;;;;;;;15.41;52.56;99396.59;4146109;28;19921;-64
2021/11/03 00:39:59;;;;;;;;;;;;;;;15.39;52.67;99393.22;4146307;28;20281;-65
2021/11/03 00:42:01;;;;;;;;;;;;;;;15.38;52.83;99399.47;4146266;28;19921;-64
2021/11/03 00:44:03;;;;;;;;;;;;;;;15.36;52.56;99398.78;4145838;28;19976;-64
2021/11/03 00:46:05;;;;;;;;;;;;;;;15.36;52.48;99397.91;4146363;28;20347;-65
2021/11/03 00:48:08;;;;;;;;;;;;;;;15.35;52.80;99397.09;4146259;28;20373;-65
2021/11/03 00:50:10;;;;;;;;;;;;;;;15.33;52.82;99399.00;4146078;28;19921;-64
2021/11/03 00:52:12;;;;;;;;;;;;;;;15.33;52.59;99394.56;4146068;28;19921;-64
2021/11/03 00:54:14;;;;;;;;;;;;;;;15.32;52.80;99397.31;4145906;28;20154;-64
2021/11/03 00:56:16;;;;;;;;;;;;;;;15.31;52.75;99392.97;4146107;28;20389;-64
2021/11/03 00:58:18;;;;;;;;;;;;;;;15.20;52.76;99374.41;4146073;28;19921;-64
2021/11/03 01:00:21;;;;;;;;;;;;;;;15.28;52.79;99388.75;4145638;28;19968;-64
2021/11/03 01:02:23;;;;;;;;;;;;;;;15.27;52.49;99386.22;4130091;28;19921;-64
2021/11/03 01:04:26;;;;;;;;;;;;;;;15.25;52.84;99386.34;4136663;28;19921;-64
2021/11/03 01:06:28;;;;;;;;;;;;;;;15.24;52.78;99395.25;4145883;28;19922;-64
2021/11/03 01:08:30;;;;;;;;;;;;;;;15.22;52.81;99383.09;4145915;28;19922;-64
2021/11/03 01:10:32;;;;;;;;;;;;;;;15.21;52.73;99387.53;4145784;28;19921;-64
2021/11/03 01:12:35;;;;;;;;;;;;;;;15.18;52.80;99388.63;4145838;28;19928;-64
2021/11/03 01:14:37;;;;;;;;;;;;;;;15.16;53.11;99382.59;4145543;28;19921;-65
2021/11/03 01:16:39;;;;;;;;;;;;;;;15.15;52.90;99383.56;4145985;28;19921;-64
2021/11/03 01:18:41;;;;;;;;;;;;;;;15.14;52.91;99384.53;4146008;28;19921;-63
2021/11/03 01:20:44;;;;;;;;;;;;;;;15.13;53.25;99387.28;4145586;28;19929;-64
2021/11/03 01:22:46;;;;;;;;;;;;;;;15.12;52.97;99389.09;4145945;28;19921;-63
2021/11/03 01:24:49;;;;;;;;;;;;;;;15.11;53.16;99389.22;4145622;28;19925;-64
2021/11/03 01:26:53;;;;;;;;;;;;;;;15.10;53.15;99395.47;4140569;28;20311;-64
2021/11/03 01:28:55;;;;;;;;;;;;;;;15.08;53.41;99392.94;4129645;28;19922;-64
2021/11/03 01:30:57;;;;;;;;;;;;;;;15.07;53.55;99391.25;4137869;28;19921;-64
2021/11/03 01:32:59;;;;;;;;;;;;;;;15.06;53.36;99397.50;4132966;28;19921;-65
2021/11/03 01:35:02;;;;;;;;;;;;;;;15.06;53.19;99397.50;4132929;28;20333;-64
2021/11/03 01:37:04;;;;;;;;;;;;;;;15.06;53.14;99407.25;4141676;28;19921;-64
2021/11/03 01:39:07;;;;;;;;;;;;;;;15.06;53.16;99401.97;4132582;28;19937;-64
2021/11/03 01:41:09;;;;;;;;;;;;;;;15.04;53.33;99402.06;4139568;28;19921;-64
2021/11/03 01:43:32;;;;;;;;;;;;;;;15.03;53.21;99405.69;4137056;28;19921;-64
2021/11/03 01:45:35;;;;;;;;;;;;;;;15.01;53.29;99407.59;4133549;28;19926;-64
2021/11/03 01:47:42;;;;;;;;;;;;;;;15.01;53.51;99407.59;4137855;28;19921;-64
2021/11/03 01:49:44;;;;;;;;;;;;;;;15.00;53.18;99411.19;4148568;28;20282;-63
2021/11/03 01:51:49;;;;;;;;;;;;;;;14.98;53.64;99407.81;4148420;28;19921;-64
2021/11/03 01:53:51;;;;;;;;;;;;;;;14.98;53.60;99411.31;4148171;28;19929;-63
2021/11/03 01:55:59;;;;;;;;;;;;;;;14.97;53.32;99404.34;4148375;28;19925;-63
2021/11/03 01:58:07;;;;;;;;;;;;;;;14.97;53.55;99406.13;4138194;28;19921;-64
2021/11/03 02:00:12;;;;;;;;;;;;;;;14.96;53.27;99401.81;4148227;28;20377;-64
2021/11/03 02:02:15;;;;;;;;;;;;;;;14.94;53.64;99401.91;4163068;28;19979;-64
2021/11/03 02:04:18;;;;;;;;;;;;;;;14.94;53.62;99407.19;4148282;28;19925;-64
2021/11/03 02:06:23;;;;;;;;;;;;;;;14.94;53.39;99407.19;4147857;28;19921;-63
2021/11/03 02:08:26;;;;;;;;;;;;;;;14.93;53.46;99399.38;4148343;28;19933;-64
2021/11/03 02:10:29;;;;;;;;;;;;;;;14.93;53.44;99404.69;4148293;28;20345;-64
2021/11/03 02:12:31;;;;;;;;;;;;;;;14.91;53.48;99396.84;4147892;28;19967;-64
2021/11/03 02:14:33;;;;;;;;;;;;;;;14.92;53.71;99402.97;4148044;28;20499;-64
2021/11/03 02:16:37;;;;;;;;;;;;;;;14.91;53.77;99406.59;4148112;28;19925;-64
2021/11/03 02:18:39;;;;;;;;;;;;;;;14.89;53.69;99397.94;4137611;28;19921;-64
2021/11/03 02:20:43;;;;;;;;;;;;;;;14.88;53.60;99405.00;4148265;28;19945;-64
2021/11/03 02:22:54;;;;;;;;;;;;;;;14.88;53.75;99402.38;4147871;28;19932;-65
2021/11/03 02:25:04;;;;;;;;;;;;;;;14.88;53.78;99404.19;4148067;28;19921;-64
2021/11/03 02:27:06;;;;;;;;;;;;;;;14.88;53.57;99401.53;4147840;28;20389;-64
2021/11/03 02:29:09;;;;;;;;;;;;;;;14.87;53.64;99407.78;4147998;28;19964;-64
2021/11/03 02:31:30;;;;;;;;;;;;;;;14.85;53.58;99399.97;4147931;28;19983;-64
2021/11/03 02:33:33;;;;;;;;;;;;;;;14.84;53.62;99393.81;4146527;28;19925;-64
2021/11/03 02:35:36;;;;;;;;;;;;;;;14.84;53.75;99398.28;4147910;28;19922;-64
2021/11/03 02:37:43;;;;;;;;;;;;;;;14.82;53.51;99398.41;4147482;28;20543;-64
2021/11/03 02:39:48;;;;;;;;;;;;;;;14.82;53.59;99397.53;4147611;28;19987;-64
2021/11/03 02:41:50;;;;;;;;;;;;;;;14.80;53.81;99395.00;4147754;28;20377;-65
2021/11/03 02:43:58;;;;;;;;;;;;;;;14.81;53.94;99402.00;4146308;28;19929;-64
2021/11/03 02:46:01;;;;;;;;;;;;;;;14.79;53.95;99403.91;4146916;28;19925;-64
2021/11/03 02:48:03;;;;;;;;;;;;;;;14.79;54.05;99406.56;4147364;28;19964;-63
2021/11/03 02:50:09;;;;;;;;;;;;;;;14.78;53.90;99404.84;4147462;28;20451;-63
2021/11/03 02:52:16;;;;;;;;;;;;;;;14.78;53.70;99404.84;4147355;28;19921;-64
2021/11/03 02:54:20;;;;;;;;;;;;;;;14.77;53.75;99403.16;4146701;28;19975;-64
2021/11/03 02:56:24;;;;;;;;;;;;;;;14.77;53.71;99407.63;4147651;28;19921;-64
2021/11/03 02:58:26;;;;;;;;;;;;;;;14.76;53.82;99412.06;4147104;28;19981;-64
2021/11/03 03:00:28;;;;;;;;;;;;;;;14.75;53.83;99399.81;4147096;28;19925;-64
2021/11/03 03:02:30;;;;;;;;;;;;;;;14.75;53.89;99406.88;4147612;28;19925;-65
2021/11/03 03:04:34;;;;;;;;;;;;;;;14.75;53.98;99412.19;4147182;28;20297;-64
2021/11/03 03:06:36;;;;;;;;;;;;;;;14.74;53.77;99410.47;4147651;28;19979;-65
2021/11/03 03:08:38;;;;;;;;;;;;;;;14.73;53.79;99409.66;4146998;28;19968;-64
2021/11/03 03:10:40;;;;;;;;;;;;;;;14.72;53.65;99415.06;4147206;28;19921;-64
2021/11/03 03:12:42;;;;;;;;;;;;;;;14.71;53.86;99411.56;4147255;28;19922;-64
2021/11/03 03:14:45;;;;;;;;;;;;;;;14.70;53.84;99409.88;4147001;28;19921;-64
2021/11/03 03:16:47;;;;;;;;;;;;;;;14.70;53.98;99409.88;4147214;28;19940;-64
2021/11/03 03:18:50;;;;;;;;;;;;;;;14.69;54.20;99419.63;4146961;28;19925;-64
2021/11/03 03:20:52;;;;;;;;;;;;;;;14.68;53.90;99412.63;4146967;28;19936;-65
2021/11/03 03:23:13;;;;;;;;;;;;;;;14.68;53.80;99430.31;4146865;28;19928;-64
2021/11/03 03:25:15;;;;;;;;;;;;;;;14.67;54.04;99418.88;4145515;28;19921;-64
2021/11/03 03:27:17;;;;;;;;;;;;;;;14.67;53.91;99415.41;4147095;28;19921;-65
2021/11/03 03:29:19;;;;;;;;;;;;;;;14.66;53.90;99421.66;4146716;28;19922;-64
2021/11/03 03:31:22;;;;;;;;;;;;;;;14.66;54.19;99421.66;4146884;28;19921;-64
2021/11/03 03:33:24;;;;;;;;;;;;;;;14.65;53.92;99422.56;4161974;28;20552;-65
2021/11/03 03:35:26;;;;;;;;;;;;;;;14.64;54.12;99419.09;4145274;28;20501;-64
2021/11/03 03:37:28;;;;;;;;;;;;;;;14.65;54.00;99435.78;4146807;28;19922;-65
2021/11/03 03:39:30;;;;;;;;;;;;;;;14.64;54.08;99439.41;4146529;28;19973;-65
2021/11/03 03:41:32;;;;;;;;;;;;;;;14.63;53.92;99437.69;4146862;28;20404;-64
2021/11/03 03:43:34;;;;;;;;;;;;;;;14.63;54.04;99440.34;4146757;28;20189;-65
2021/11/03 03:45:36;;;;;;;;;;;;;;;14.63;54.09;99437.69;4146441;28;19971;-64
2021/11/03 03:47:38;;;;;;;;;;;;;;;14.61;53.99;99443.13;4146564;28;19928;-64
2021/11/03 03:49:40;;;;;;;;;;;;;;;14.62;54.11;99443.97;4146437;28;19925;-64
2021/11/03 03:51:42;;;;;;;;;;;;;;;14.61;53.84;99443.13;4135737;28;20442;-65
2021/11/03 03:53:44;;;;;;;;;;;;;;;14.60;54.05;99444.06;4146464;28;20298;-64
2021/11/03 03:55:47;;;;;;;;;;;;;;;14.60;54.11;99440.59;4146234;28;19967;-64
2021/11/03 03:57:49;;;;;;;;;;;;;;;14.59;54.00;99445.03;4145505;28;19922;-66
2021/11/03 03:59:51;;;;;;;;;;;;;;;14.59;53.96;99445.03;4146076;28;20451;-64
2021/11/03 04:01:53;;;;;;;;;;;;;;;14.58;54.21;99443.34;4146513;28;20382;-64
2021/11/03 04:03:55;;;;;;;;;;;;;;;14.58;53.89;99451.28;4146672;28;19921;-64
2021/11/03 04:05:59;;;;;;;;;;;;;;;14.58;54.18;99461.00;4146160;28;19967;-64
2021/11/03 04:08:01;;;;;;;;;;;;;;;14.57;53.93;99457.53;4146268;28;19921;-64
2021/11/03 04:10:04;;;;;;;;;;;;;;;14.57;54.11;99454.03;4146275;28;19922;-64
2021/11/03 04:12:06;;;;;;;;;;;;;;;14.56;54.19;99455.84;4146300;28;19928;-64
2021/11/03 04:14:08;;;;;;;;;;;;;;;14.56;53.80;99461.13;4146285;28;19921;-63
2021/11/03 04:16:10;;;;;;;;;;;;;;;14.56;54.03;99468.22;4146100;28;19957;-64
2021/11/03 04:18:12;;;;;;;;;;;;;;;14.55;54.03;99459.44;4146278;28;19921;-63
2021/11/03 04:20:15;;;;;;;;;;;;;;;14.55;54.03;99467.38;4146215;28;19921;-64
2021/11/03 04:22:17;;;;;;;;;;;;;;;14.53;53.83;99462.22;4142452;28;19929;-65
2021/11/03 04:24:20;;;;;;;;;;;;;;;14.54;54.21;99476.25;4146392;28;19976;-64
2021/11/03 04:26:24;;;;;;;;;;;;;;;14.53;54.28;99466.63;4145704;28;19921;-64
2021/11/03 04:28:26;;;;;;;;;;;;;;;14.52;53.86;99470.22;4161123;28;19925;-64
2021/11/03 04:30:29;;;;;;;;;;;;;;;14.51;54.19;99472.03;4145985;28;19921;-63
2021/11/03 04:32:31;;;;;;;;;;;;;;;14.50;54.11;99474.81;4145194;28;19921;-63
2021/11/03 04:34:33;;;;;;;;;;;;;;;14.50;53.86;99474.81;4146308;28;20412;-63
2021/11/03 04:36:36;;;;;;;;;;;;;;;14.49;54.10;99476.59;4145974;28;20019;-64
2021/11/03 04:38:38;;;;;;;;;;;;;;;14.49;53.96;99484.53;4146074;28;19929;-64
2021/11/03 04:40:40;;;;;;;;;;;;;;;14.47;54.17;99483.81;4146374;28;19929;-64
2021/11/03 04:42:42;;;;;;;;;;;;;;;14.48;54.07;99474.06;4145812;28;19921;-64
2021/11/03 04:44:44;;;;;;;;;;;;;;;14.48;54.27;99482.00;4146072;28;19922;-63
2021/11/03 04:46:46;;;;;;;;;;;;;;;14.46;54.23;99479.47;4146083;28;19921;-64
2021/11/03 04:48:48;;;;;;;;;;;;;;;14.47;54.29;99480.31;4145992;28;19921;-64
2021/11/03 04:50:50;;;;;;;;;;;;;;;14.46;53.86;99486.53;4145986;28;19931;-63
2021/11/03 04:52:52;;;;;;;;;;;;;;;14.46;54.01;99489.19;4145765;28;19925;-65
2021/11/03 04:54:56;;;;;;;;;;;;;;;14.45;54.18;99490.19;4146107;28;19925;-63
2021/11/03 04:56:58;;;;;;;;;;;;;;;14.44;53.96;99489.31;4145660;28;19925;-64
2021/11/03 04:59:00;;;;;;;;;;;;;;;14.44;53.95;99484.03;4145799;28;19921;-64
2021/11/03 05:01:02;;;;;;;;;;;;;;;14.44;54.04;99486.66;4146056;28;19984;-64
2021/11/03 05:03:04;;;;;;;;;;;;;;;14.44;54.16;99483.19;4145635;28;19972;-63
2021/11/03 05:05:06;;;;;;;;;;;;;;;14.43;54.20;99489.44;4146092;28;19925;-64
2021/11/03 05:07:10;;;;;;;;;;;;;;;14.42;54.16;99487.72;4145857;28;20368;-64
2021/11/03 05:09:12;;;;;;;;;;;;;;;14.42;54.26;99495.66;4146905;28;19925;-63
2021/11/03 05:11:14;;;;;;;;;;;;;;;14.42;54.10;99493.03;4149155;28;19921;-64
2021/11/03 05:13:16;;;;;;;;;;;;;;;14.41;53.98;99496.63;4148525;28;19968;-64
2021/11/03 05:15:18;;;;;;;;;;;;;;;14.40;54.03;99489.63;4148999;28;19936;-64
2021/11/03 05:17:20;;;;;;;;;;;;;;;14.40;54.03;99492.28;4148799;28;20396;-64
2021/11/03 05:19:27;;;;;;;;;;;;;;;14.40;54.34;99500.22;4148948;28;20383;-63
2021/11/03 05:21:29;;;;;;;;;;;;;;;14.39;54.13;99504.69;4148844;28;19921;-64
2021/11/03 05:23:31;;;;;;;;;;;;;;;14.38;54.22;99498.53;4148529;28;19925;-64
2021/11/03 05:25:33;;;;;;;;;;;;;;;14.38;54.37;99500.34;4148870;28;19937;-64
2021/11/03 05:27:35;;;;;;;;;;;;;;;14.37;54.10;99493.34;4148284;28;19932;-64
2021/11/03 05:29:37;;;;;;;;;;;;;;;14.37;54.20;99503.94;4148467;28;19929;-64
2021/11/03 05:31:39;;;;;;;;;;;;;;;14.37;54.34;99494.22;4148977;28;20377;-63
2021/11/03 05:33:41;;;;;;;;;;;;;;;14.36;54.10;99495.16;4148661;28;20385;-63
2021/11/03 05:35:44;;;;;;;;;;;;;;;14.35;53.96;99497.91;4148598;28;20282;-63
2021/11/03 05:37:46;;;;;;;;;;;;;;;14.35;54.36;99496.09;4148524;28;20360;-63
2021/11/03 05:39:48;;;;;;;;;;;;;;;14.35;54.27;99503.19;4163798;28;20400;-63
2021/11/03 05:41:50;;;;;;;;;;;;;;;14.34;54.09;99502.34;4148882;28;19925;-64
2021/11/03 05:43:52;;;;;;;;;;;;;;;14.33;54.29;99502.47;4148445;28;19928;-63
2021/11/03 05:45:54;;;;;;;;;;;;;;;14.33;54.16;99505.94;4148529;28;19973;-64
2021/11/03 05:47:56;;;;;;;;;;;;;;;14.32;54.08;99504.25;4148673;28;20079;-64
2021/11/03 05:49:58;;;;;;;;;;;;;;;14.33;53.92;99507.75;4148178;28;20362;-64
2021/11/03 05:52:01;;;;;;;;;;;;;;;14.33;54.08;99505.13;4148649;28;19921;-63
2021/11/03 05:54:04;;;;;;;;;;;;;;;14.33;54.29;99507.75;4148224;28;19921;-64
2021/11/03 05:56:07;;;;;;;;;;;;;;;14.31;54.17;99504.38;4163530;28;19956;-63
2021/11/03 05:58:09;;;;;;;;;;;;;;;14.31;54.39;99505.19;4148518;28;19975;-63
2021/11/03 06:00:26;;;;;;;;;;;;;;;14.31;53.99;99513.13;4147975;28;19922;-63
2021/11/03 06:02:28;;;;;;;;;;;;;;;14.30;54.12;99514.13;4132168;28;19992;-64
2021/11/03 06:04:30;;;;;;;;;;;;;;;14.29;54.42;99512.41;4139916;28;19921;-64
2021/11/03 06:06:33;;;;;;;;;;;;;;;14.29;54.07;99520.34;4148341;28;20285;-64
2021/11/03 06:08:35;;;;;;;;;;;;;;;14.30;54.15;99521.19;4148184;28;19922;-63
2021/11/03 06:10:39;;;;;;;;;;;;;;;14.29;54.25;99519.47;4147832;28;19983;-64
2021/11/03 06:12:41;;;;;;;;;;;;;;;14.28;54.45;99520.47;4163416;28;19921;-65
2021/11/03 06:14:43;;;;;;;;;;;;;;;14.28;54.33;99525.75;4147988;28;19967;-64
2021/11/03 06:16:45;;;;;;;;;;;;;;;14.28;54.22;99523.94;4148187;28;19921;-64
2021/11/03 06:18:47;;;;;;;;;;;;;;;14.27;54.24;99526.72;4148220;28;19940;-64
2021/11/03 06:20:49;;;;;;;;;;;;;;;14.27;54.45;99527.53;4146564;28;19944;-64
2021/11/03 06:22:52;;;;;;;;;;;;;;;14.26;54.07;99525.00;4148141;28;19979;-64
2021/11/03 06:24:54;;;;;;;;;;;;;;;14.26;54.71;99530.28;4147691;28;19972;-64
2021/11/03 06:26:57;;;;;;;;;;;;;;;14.25;54.19;99532.06;4147758;28;20381;-65
2021/11/03 06:28:59;;;;;;;;;;;;;;;14.24;54.32;99530.41;4148105;28;20297;-64
2021/11/03 06:31:01;;;;;;;;;;;;;;;14.24;54.39;99533.06;4147561;28;19929;-63
2021/11/03 06:33:03;;;;;;;;;;;;;;;14.24;54.34;99540.13;4147710;28;19984;-64
2021/11/03 06:35:06;;;;;;;;;;;;;;;14.23;54.44;99541.94;4147463;28;19925;-64
2021/11/03 06:37:08;;;;;;;;;;;;;;;14.22;54.39;99541.06;4147366;28;19925;-64
2021/11/03 06:39:10;;;;;;;;;;;;;;;14.21;54.24;99542.03;4146510;28;19936;-63
2021/11/03 06:41:13;;;;;;;;;;;;;;;14.22;54.32;99548.19;4147409;28;19929;-63
2021/11/03 06:43:16;;;;;;;;;;;;;;;14.21;54.59;99547.31;4147659;28;19921;-64
2021/11/03 06:45:18;;;;;;;;;;;;;;;14.20;54.29;99552.72;4147627;28;19929;-63
2021/11/03 06:47:20;;;;;;;;;;;;;;;14.20;54.27;99552.72;4146411;28;19968;-63
2021/11/03 06:49:26;;;;;;;;;;;;;;;14.20;54.48;99553.59;4147605;28;19921;-63
2021/11/03 06:51:28;;;;;;;;;;;;;;;14.19;54.33;99554.53;4147504;28;19980;-64
2021/11/03 06:53:30;;;;;;;;;;;;;;;14.19;54.43;99558.94;4146346;28;19983;-63
2021/11/03 06:55:32;;;;;;;;;;;;;;;14.18;54.58;99559.91;4147241;28;20003;-64
2021/11/03 06:57:34;;;;;;;;;;;;;;;14.19;54.46;99561.59;4147483;28;19946;-64
2021/11/03 06:59:37;;;;;;;;;;;;;;;14.17;54.34;99566.16;4147361;28;19928;-64
2021/11/03 07:01:39;;;;;;;;;;;;;;;14.17;54.43;99568.81;4147181;28;19972;-64
2021/11/03 07:03:42;;;;;;;;;;;;;;;14.18;54.35;99571.34;4147373;28;19921;-64
2021/11/03 07:05:45;;;;;;;;;;;;;;;14.17;54.66;99576.75;4147516;28;19989;-63
2021/11/03 07:07:47;;;;;;;;;;;;;;;14.16;54.39;99586.47;4147083;28;19983;-64
2021/11/03 07:09:49;;;;;;;;;;;;;;;14.15;54.61;99590.06;4147015;28;19929;-63
2021/11/03 07:11:51;;;;;;;;;;;;;;;14.16;54.46;99597.03;4146928;28;19921;-63
2021/11/03 07:13:53;;;;;;;;;;;;;;;14.16;54.39;99596.19;4147411;28;19976;-63
2021/11/03 07:15:55;;;;;;;;;;;;;;;14.15;54.66;99602.44;4147228;28;19926;-64
2021/11/03 07:17:57;;;;;;;;;;;;;;;14.14;54.55;99604.22;4146662;28;19921;-63
2021/11/03 07:19:59;;;;;;;;;;;;;;;14.14;54.54;99601.56;4147224;28;19925;-63
2021/11/03 07:22:01;;;;;;;;;;;;;;;14.14;54.59;99608.66;4146847;28;19921;-64
2021/11/03 07:24:03;;;;;;;;;;;;;;;14.14;54.68;99608.66;4147269;28;19921;-63
2021/11/03 07:26:05;;;;;;;;;;;;;;;14.14;54.52;99611.31;4147334;28;19975;-63
2021/11/03 07:28:08;;;;;;;;;;;;;;;14.13;54.44;99609.63;4146682;28;20389;-63
2021/11/03 07:30:10;;;;;;;;;;;;;;;14.12;54.62;99619.34;4146802;28;19925;-64
2021/11/03 07:32:12;;;;;;;;;;;;;;;14.12;54.66;99622.00;4146552;28;19928;-63
2021/11/03 07:34:14;;;;;;;;;;;;;;;14.12;54.48;99623.78;4146935;28;20488;-63
2021/11/03 07:36:20;;;;;;;;;;;;;;;14.11;54.64;99628.25;4146883;28;20344;-63
2021/11/03 07:38:22;;;;;;;;;;;;;;;14.10;54.58;99634.47;4146503;28;19928;-64
2021/11/03 07:40:27;;;;;;;;;;;;;;;14.10;54.33;99638.94;4146921;28;19983;-62
2021/11/03 07:42:29;;;;;;;;;;;;;;;14.10;54.39;99638.94;4146908;28;19932;-63
2021/11/03 07:44:31;;;;;;;;;;;;;;;14.10;54.61;99652.97;4146778;28;19981;-63
2021/11/03 07:46:33;;;;;;;;;;;;;;;14.09;54.36;99648.63;4146782;28;19921;-62
2021/11/03 07:48:35;;;;;;;;;;;;;;;14.08;54.46;99646.94;4146573;28;19929;-63
2021/11/03 07:50:40;;;;;;;;;;;;;;;14.08;54.48;99654.03;4146739;28;20361;-62
2021/11/03 07:52:42;;;;;;;;;;;;;;;14.08;54.67;99649.59;4146386;28;20369;-62
2021/11/03 07:54:44;;;;;;;;;;;;;;;14.06;54.49;99647.06;4146440;28;19921;-62
2021/11/03 07:56:47;;;;;;;;;;;;;;;14.08;54.59;99661.97;4146649;28;19921;-63
2021/11/03 07:58:50;;;;;;;;;;;;;;;14.07;54.65;99658.50;4146543;28;19929;-63
2021/11/03 08:00:53;;;;;;;;;;;;;;;14.05;54.43;99663.03;4145604;28;20282;-64
2021/11/03 08:02:55;;;;;;;;;;;;;;;14.06;54.75;99667.38;4146458;28;19921;-65
2021/11/03 08:04:57;;;;;;;;;;;;;;;14.05;54.37;99669.16;4146441;28;19921;-64
2021/11/03 08:06:59;;;;;;;;;;;;;;;14.05;54.46;99674.44;4146672;28;19926;-65
2021/11/03 08:09:03;;;;;;;;;;;;;;;14.05;54.29;99674.44;4146337;28;19976;-63
2021/11/03 08:11:05;;;;;;;;;;;;;;;14.05;54.23;99678.88;4146674;28;19921;-65
2021/11/03 08:13:12;;;;;;;;;;;;;;;14.05;54.47;99681.53;4146314;28;19925;-64
2021/11/03 08:15:14;;;;;;;;;;;;;;;14.05;54.58;99685.00;4146354;28;19925;-65
2021/11/03 08:17:19;;;;;;;;;;;;;;;14.05;54.39;99682.38;4146517;28;20340;-64
2021/11/03 08:19:24;;;;;;;;;;;;;;;14.05;54.74;99687.66;4146221;28;20348;-63
2021/11/03 08:21:27;;;;;;;;;;;;;;;14.04;54.45;99690.41;4146531;28;19921;-62
2021/11/03 08:23:29;;;;;;;;;;;;;;;14.05;54.53;99681.53;4145886;28;19929;-61
2021/11/03 08:25:31;;;;;;;;;;;;;;;14.04;54.62;99688.59;4146109;28;19948;-63
2021/11/03 08:27:33;;;;;;;;;;;;;;;14.04;54.26;99693.88;4146518;28;19922;-62
2021/11/03 08:29:38;;;;;;;;;;;;;;;14.04;54.40;99700.97;4146157;28;19928;-62
2021/11/03 08:31:40;;;;;;;;;;;;;;;14.04;54.51;99699.16;4146295;28;19921;-62
2021/11/03 08:33:45;;;;;;;;;;;;;;;14.04;54.36;99707.09;4146181;28;20296;-62
2021/11/03 08:35:50;;;;;;;;;;;;;;;14.05;54.32;99713.25;4143090;28;20272;-62
2021/11/03 08:37:52;;;;;;;;;;;;;;;14.05;54.31;99722.03;4146210;28;19928;-63
2021/11/03 08:39:55;;;;;;;;;;;;;;;14.04;54.44;99720.31;4146012;28;19975;-62
2021/11/03 08:41:57;;;;;;;;;;;;;;;14.03;54.39;99716.00;4146625;28;19922;-63
2021/11/03 08:43:59;;;;;;;;;;;;;;;14.03;54.23;99713.38;4146924;28;20545;-65
2021/11/03 08:46:02;;;;;;;;;;;;;;;14.03;54.51;99716.00;4149563;28;19941;-60
2021/11/03 08:48:04;;;;;;;;;;;;;;;14.03;54.34;99720.44;4149751;28;20436;-61
2021/11/03 08:50:08;;;;;;;;;;;;;;;14.04;54.38;99722.13;4149118;28;20348;-62
2021/11/03 08:52:10;;;;;;;;;;;;;;;14.04;54.47;99720.31;4149332;28;19921;-62
2021/11/03 08:54:13;;;;;;;;;;;;;;;14.05;54.15;99727.31;4149464;28;19922;-62
2021/11/03 08:56:16;;;;;;;;;;;;;;;14.06;54.38;99717.59;4149080;28;19921;-63
2021/11/03 08:58:21;;;;;;;;;;;;;;;14.07;54.20;99721.94;4149476;28;19922;-61
2021/11/03 09:00:25;;;;;;;;;;;;;;;14.07;54.15;99724.59;4148387;28;19929;-61
2021/11/03 09:02:27;;;;;;;;;;;;;;;14.08;54.20;99723.63;4147803;28;19928;-61
2021/11/03 09:04:36;;;;;;;;;;;;;;;14.09;54.42;99719.19;4141582;28;19940;-64
2021/11/03 09:06:38;;;;;;;;;;;;;;;14.10;54.35;99728.81;4148738;28;19932;-64
2021/11/03 09:08:41;;;;;;;;;;;;;;;14.10;54.04;99734.09;4149087;28;19921;-63
2021/11/03 09:10:46;;;;;;;;;;;;;;;14.10;54.34;99740.22;4163776;28;19935;-64
2021/11/03 09:12:48;;;;;;;;;;;;;;;14.11;54.25;99736.66;4149559;28;20458;-64
2021/11/03 09:14:51;;;;;;;;;;;;;;;14.12;54.13;99738.34;4149115;28;19925;-63
2021/11/03 09:16:53;;;;;;;;;;;;;;;14.13;54.47;99733.88;4148574;28;20443;-63
2021/11/03 09:18:55;;;;;;;;;;;;;;;14.13;54.20;99737.41;4145130;28;19921;-64
2021/11/03 09:20:57;;;;;;;;;;;;;;;14.14;54.32;99744.34;4148547;28;19921;-63
2021/11/03 09:22:59;;;;;;;;;;;;;;;14.15;54.22;99745.22;4148707;28;20396;-64
2021/11/03 09:25:01;;;;;;;;;;;;;;;14.15;54.28;99750.50;4149087;28;19922;-62
2021/11/03 09:27:11;;;;;;;;;;;;;;;14.15;54.30;99755.81;4147102;28;20435;-62
2021/11/03 09:29:13;;;;;;;;;;;;;;;14.16;53.99;99757.50;4147455;28;20011;-62
2021/11/03 09:31:15;;;;;;;;;;;;;;;14.16;54.21;99762.78;4148232;28;20394;-62
2021/11/03 09:33:17;;;;;;;;;;;;;;;14.15;53.93;99761.91;4147811;28;19921;-62
2021/11/03 09:35:20;;;;;;;;;;;;;;;14.17;54.10;99769.78;4148787;28;19932;-62
2021/11/03 09:37:23;;;;;;;;;;;;;;;14.17;54.00;99765.31;4148429;28;19922;-62
2021/11/03 09:39:25;;;;;;;;;;;;;;;14.18;53.95;99767.03;4148624;28;19927;-63
2021/11/03 09:41:31;;;;;;;;;;;;;;;14.19;54.07;99773.16;4148605;28;19925;-61
2021/11/03 09:43:39;;;;;;;;;;;;;;;14.20;53.97;99777.50;4148802;28;20404;-63
2021/11/03 09:45:41;;;;;;;;;;;;;;;14.21;53.92;99781.84;4148538;28;19975;-63
2021/11/03 09:47:55;;;;;;;;;;;;;;;14.20;53.74;99781.00;4148540;28;19975;-64
2021/11/03 09:50:19;;;;;;;;;;;;;;;14.21;53.66;99782.66;4132637;28;20551;-62
2021/11/03 09:52:24;;;;;;;;;;;;;;;14.22;53.89;99779.09;4142045;28;19932;-60
2021/11/03 09:54:36;;;;;;;;;;;;;;;14.24;53.61;99786.06;4148419;28;19925;-63
2021/11/03 09:56:44;;;;;;;;;;;;;;;14.23;53.80;99782.59;4148537;28;20446;-62
2021/11/03 09:58:48;;;;;;;;;;;;;;;14.24;53.61;99781.66;4148613;28;19921;-62
2021/11/03 10:00:56;;;;;;;;;;;;;;;14.26;53.79;99786.81;4148211;28;20393;-61
2021/11/03 10:03:17;;;;;;;;;;;;;;;14.27;53.56;99792.00;4148102;28;19921;-61
2021/11/03 10:05:39;;;;;;;;;;;;;;;14.27;53.78;99788.53;4144024;28;19980;-61
2021/11/03 10:07:52;;;;;;;;;;;;;;;14.27;53.78;99786.72;4148018;28;19922;-61
2021/11/03 10:10:09;;;;;;;;;;;;;;;14.30;54.05;99788.31;4147384;28;19928;-60
2021/11/03 10:12:20;;;;;;;;;;;;;;;14.33;53.88;99799.53;4146524;28;20046;-61
2021/11/03 10:14:30;;;;;;;;;;;;;;;14.39;54.06;99795.66;4137395;28;19921;-62
2021/11/03 10:16:39;;;;;;;;;;;;;;;14.44;53.93;99793.53;4146689;28;20305;-62
2021/11/03 10:18:59;;;;;;;;;;;;;;;14.50;53.41;99793.13;4146206;28;19925;-61
2021/11/03 10:21:01;;;;;;;;;;;;;;;14.55;53.78;99787.53;4130512;28;20426;-62
2021/11/03 10:23:08;;;;;;;;;;;;;;;14.60;53.61;99792.50;4138307;28;19921;-64
2021/11/03 10:25:20;;;;;;;;;;;;;;;14.64;53.16;99789.56;4147986;28;19971;-63
2021/11/03 10:27:22;;;;;;;;;;;;;;;14.68;53.28;99796.38;4147894;28;19932;-62
2021/11/03 10:29:33;;;;;;;;;;;;;;;14.72;53.35;99796.16;4147757;28;19921;-64
2021/11/03 10:31:56;;;;;;;;;;;;;;;14.75;53.13;99799.47;4148151;28;19928;-62
2021/11/03 10:34:00;;;;;;;;;;;;;;;14.79;52.91;99797.44;4147838;28;20325;-61
2021/11/03 10:36:19;;;;;;;;;;;;;;;14.83;53.15;99796.28;4147894;28;20298;-63
2021/11/03 10:38:24;;;;;;;;;;;;;;;14.89;53.27;99800.31;4147470;28;19928;-62
2021/11/03 10:40:42;;;;;;;;;;;;;;;14.93;52.97;99804.44;4147898;28;19929;-60
2021/11/03 10:42:45;;;;;;;;;;;;;;;14.96;52.60;99804.25;4148047;28;19921;-60
2021/11/03 10:44:48;;;;;;;;;;;;;;;14.98;52.90;99808.47;4147468;28;19921;-61